Detall de PIREP

Printer-friendly versionPDF version

[2014/10/04 17:01:00]
Flight IATA:CT1031
Pilot Number:012
Company ICAO:CAT
Aircraft Type:B763/F
PAX:0
Departing Airport: EGLL
Destination Airport: LEBL
Alternate Airport:LEPA
Online: VATSIM
Route:MID UL151 SITET UN859 PUMAL
Flight Level:F370
No Slew and time accel
No pause
Crash detect
Detect pilot in Cockpit between each 30 and 45 minutes
17:01 Zero fuel Weight: 268545 Lbs, Fuel Weight: 33359 Lbs
17:01 VATSIM:EGLL 041650Z 30004KT 9999 FEW020 13/08 Q1016 NOSIG
17:01 VATSIM:LEBL 041630Z 22012KT 9999 FEW020 23/19 Q1015 NOSIG
17:01 BOEING TRANSPORT
17:04 Parking Brakes off
17:11 Take-off
17:11 Take off Weight: 299966 Lbs
17:11 Wind: 311º @ 005 Knots Heading: 275º
17:11 POS N51º 27´ 47´´ W000º 28´ 22´´
17:11 Gear Up: 138 Knots
17:11 Flaps:2 at 138 Knots
17:12 Flaps:1 at 177 Knots
17:12 Flaps:0 at 184 Knots
17:26 Wind:240º@044 Knots Heading: 162º Ground Speed: 446 Knots Altitude 36240 ft
17:26 TOC
17:26 Fuel Weight: 24959 Lb
17:41 Wind:248º@045 Knots Heading: 170º Ground Speed: 443 Knots Altitude 37050 ft
17:56 Wind:250º@047 Knots Heading: 162º Ground Speed: 460 Knots Altitude 37060 ft
18:11 Wind:260º@047 Knots Heading: 177º Ground Speed: 466 Knots Altitude 37122 ft
18:24 TOD
18:24 Fuel Weight: 15632 Lb
18:26 Wind:266º@029 Knots Heading: 177º Ground Speed: 481 Knots Altitude 31469 ft
18:37 Flaps:1 at 250 Knots
18:37 Flaps:2 at 229 Knots
18:39 Gear Down: 193 Knots
18:39 Flaps:3 at 175 Knots
18:40 Flaps:4 at 164 Knots
18:41 Wind:287º@003 Knots Heading: 238º Ground Speed: 168 Knots Altitude 2299 ft
18:41 Flaps:5 at 152 Knots
18:42 Flaps:6 at 144 Knots
18:45 TouchDown:Rate -257 ft/min Speed: 121 Knots
18:46 VATSIM:LEBL 041830Z 23010KT 9999 FEW020 21/19 Q1016 NOSIG
18:46 Land
18:46 Wind:219º@010 Knots
18:46 Heading: 246º
18:46 Flight Duration: 01:35
18:46 Landing Weight: 281514 Lbs
18:46 POS N41º 17´ 58´´ E002º 05´ 10´´
18:48 Parking brakes on
18:48 Block to Block Duration: 01:44
18:48 Final Fuel: 12727 Lbls
18:48 Spent Fuel: 20632 Lbls
18:48 Flight Length: 536 NM
18:48 TOD Land Length: 111 NM

Exportar CSV

Powered by Drupal - Modified by Danger4k